KTWFKBYI

Guest
Details From KTWF - JOSLIN FLD MAGIC VALLEY RGNL
To KBYI - BURLEY MUNI
Flight Number -
Tags generated
Created
Modified
Stats Distance 32 nm / 60 km
Max Altitude 0 ft / 0 m
Waypoints 3
Social Downloads 1
Likes 0
Share VATSIM

Download

Looking for another format? Having issues loading an existing format? Contact us
Advertisement - Login to hide

Notes

Basic altitude profile: - Ascent Rate: 1500ft/min - Ascent Speed: 160kts - Cruise Altitude: 35000ft - Cruise Speed: 420kts - Descent Rate: 1500ft/min - Descent Speed: 160kts Options: - Use NATs: yes - Use PACOTS: yes - Use low airways: yes - Use high airways: yes

Route

KTWF TWF KBYI

ID Type Via Altitude Latitude Longitude Leg Dist Tot Dist Heading (true) Name
O KTWF APT - 0 ft / 0 m 42.48250˚ -114.48828˚ - 0 nm - JOSLIN FLD MAGIC VALLEY RGNL
TWF DME - 0 ft / 0 m 42.47986˚ -114.48945˚ 0 nm 0 nm 198° / 198° TWIN FALLS VORTAC
O KBYI APT - 0 ft / 0 m 42.54261˚ -113.77154˚ 32 nm 32 nm 83° / 83° BURLEY MUNI

Altitude Profile

Advertisement - Login to hide

KTWF

Details ICAO KTWF (TWF)
Name JOSLIN FLD MAGIC VALLEY RGNL
Region United States
Timezone America/Boise (UTC-7.0)
Stats Elevation 4,151 ft / 1,265 m (AMSL)
Location 42.482500° -114.488279°
Runways 2
Magnetic Variation 12.612° E

METAR

KTWF 152253Z 12003KT 5SM BR CLR M01/M02 A3009 RMK AO2 SLP208 T10111022

Decode

TAF

TAF AMD KTWF 152144Z 1522/1618 03003KT 5SM BR BKN005 FM160100 22006KT P6SM OVC020 FM160700 VRB06KT 1/2SM -SN FZFG OVC003

Decode

Departure Runways

ID Width Length Bearing (true) Bearing (mag) Surface Threshold Offset Overrun Length
07 150 ft / 46 m 8,680 ft / 2,646 m 91.30° 78.69° Asphalt 0 ft / 0 m 0 ft / 0 m
12 75 ft / 23 m 3,221 ft / 982 m 136.37° 123.76° Asphalt 0 ft / 0 m 0 ft / 0 m
25 150 ft / 46 m 8,680 ft / 2,646 m 271.32° 258.71° Asphalt 0 ft / 0 m 0 ft / 0 m
30 75 ft / 23 m 3,221 ft / 982 m 316.38° 303.77° Asphalt 0 ft / 0 m 0 ft / 0 m

KBYI

Details ICAO KBYI
Name BURLEY MUNI
Region United States
Timezone America/Boise (UTC-7.0)
Stats Elevation 4,150 ft / 1,265 m (AMSL)
Location 42.542608° -113.771545°
Runways 2
Magnetic Variation 12.383° E

METAR

KBYI 152253Z AUTO 00000KT 10SM CLR 02/M04 A3006 RMK AO2 SLPNO T00221039

Decode

TAF

TAF KBYI 151726Z 1518/1618 10007KT P6SM SKC FM160300 24007KT P6SM SCT006 BKN150 FM160600 24010G15KT P6SM SCT020 FM161000 27010KT 5SM -SN BKN020

Decode

Destination Runways

ID Width Length Bearing (true) Bearing (mag) Surface Threshold Offset Overrun Length
02 80 ft / 24 m 4,093 ft / 1,248 m 37.30° 24.92° Asphalt 620 ft / 189 m 0 ft / 0 m
06 75 ft / 23 m 4,057 ft / 1,237 m 78.79° 66.41° Asphalt 800 ft / 244 m 0 ft / 0 m
20 80 ft / 24 m 4,093 ft / 1,248 m 217.30° 204.92° Asphalt 300 ft / 91 m 0 ft / 0 m
24 75 ft / 23 m 4,057 ft / 1,237 m 258.80° 246.42° Asphalt 0 ft / 0 m 0 ft / 0 m